createdAt,value
2019-02-27T00:04:44.106Z,11.6
2019-02-27T00:10:07.047Z,12
2019-02-27T00:15:29.687Z,10.7
2019-02-27T00:20:52.445Z,10.7
2019-02-27T00:26:15.268Z,10.5
2019-02-27T00:31:37.914Z,10.7
2019-02-27T00:37:01.609Z,11.4
2019-02-27T00:42:33.008Z,10.4
2019-02-27T00:47:47.964Z,11.2
2019-02-27T00:53:10.778Z,11.3
2019-02-27T00:58:33.489Z,10.4
2019-02-27T01:03:59.005Z,11.4
2019-02-27T01:09:20.300Z,11.9
2019-02-27T01:14:42.915Z,12.6
2019-02-27T01:20:06.403Z,12.5
2019-02-27T01:25:29.047Z,12.9
2019-02-27T01:30:51.739Z,13
2019-02-27T01:36:14.594Z,13.5
2019-02-27T01:41:37.296Z,13.5
2019-02-27T01:47:02.194Z,13.6
2019-02-27T01:52:23.668Z,13.6
2019-02-27T01:57:46.404Z,14.1
2019-02-27T02:03:11.122Z,14.3
2019-02-27T02:08:34.146Z,13.9
2019-02-27T02:13:57.078Z,14.8
2019-02-27T02:19:21.380Z,13.8
2019-02-27T02:24:44.461Z,14.4
2019-02-27T02:30:07.151Z,14.9
2019-02-27T02:35:29.806Z,15.1
2019-02-27T02:40:52.609Z,13.9
2019-02-27T02:46:15.231Z,14.6
2019-02-27T02:51:38.033Z,13.7
2019-02-27T02:57:01.632Z,13.6
2019-02-27T03:02:24.684Z,13.9
2019-02-27T03:07:47.138Z,14.8
2019-02-27T03:13:09.847Z,15.3
2019-02-27T03:18:32.441Z,14.6
2019-02-27T03:23:55.036Z,15.3
2019-02-27T03:29:17.877Z,14.6
2019-02-27T03:34:47.810Z,14.7
2019-02-27T03:40:10.590Z,15.8
2019-02-27T03:45:30.961Z,15.1
2019-02-27T03:50:52.758Z,15.2
2019-02-27T03:56:15.511Z,15.5
2019-02-27T04:01:38.676Z,15.5
2019-02-27T04:07:01.396Z,14.6
2019-02-27T04:12:24.467Z,15.8
2019-02-27T04:17:51.675Z,15.2
2019-02-27T04:23:12.407Z,15
2019-02-27T04:28:35.421Z,15.2
2019-02-27T04:34:00.226Z,15.5
2019-02-27T04:39:21.916Z,15.7
2019-02-27T04:44:44.597Z,14.6
2019-02-27T04:50:10.836Z,14.8
2019-02-27T04:55:30.935Z,15.3
2019-02-27T05:00:53.547Z,16
2019-02-27T05:06:16.472Z,16.4
2019-02-27T05:11:39.263Z,15.5
2019-02-27T05:17:02.570Z,15.2
2019-02-27T05:22:26.738Z,15.8
2019-02-27T05:27:48.956Z,16.1
2019-02-27T05:33:11.749Z,15.9
2019-02-27T05:38:34.438Z,15.8
2019-02-27T05:43:57.121Z,17.5
2019-02-27T05:49:20.082Z,17
2019-02-27T05:54:42.865Z,16.6
2019-02-27T06:00:07.032Z,18.200001
2019-02-27T06:05:29.242Z,17.200001
2019-02-27T06:10:54.982Z,17.5
2019-02-27T06:16:15.645Z,17.799999
2019-02-27T06:21:38.895Z,17.1
2019-02-27T06:27:06.025Z,17.4
2019-02-27T06:32:26.255Z,17.799999
2019-02-27T06:37:50.689Z,34.900002
2019-02-27T06:43:13.426Z,18.6
2019-02-27T06:48:36.211Z,17.700001
2019-02-27T06:53:58.876Z,42
2019-02-27T06:59:24.565Z,24.200001
2019-02-27T07:04:45.159Z,28.6
2019-02-27T07:10:07.846Z,36.799999
2019-02-27T07:15:30.846Z,52.299999
2019-02-27T07:20:55.575Z,22.1
2019-02-27T07:26:18.302Z,18
2019-02-27T07:31:41.109Z,16.9
2019-02-27T07:37:04.746Z,17.1
2019-02-27T07:42:31.857Z,19
2019-02-27T07:47:51.267Z,17.6
2019-02-27T07:53:17.637Z,16.6
2019-02-27T07:58:39.981Z,16.9
2019-02-27T08:04:02.615Z,17.1
2019-02-27T08:09:29.879Z,17.799999
2019-02-27T08:14:49.982Z,18
2019-02-27T08:20:13.100Z,18.799999
2019-02-27T08:25:35.809Z,19.1
2019-02-27T08:30:59.696Z,18.5
2019-02-27T08:36:22.382Z,19
2019-02-27T08:41:44.996Z,17.700001
2019-02-27T08:47:10.112Z,18.5
2019-02-27T08:52:31.928Z,18.4
2019-02-27T08:57:56.810Z,17.299999
2019-02-27T09:03:20.441Z,17.9
2019-02-27T09:08:43.992Z,18.1
2019-02-27T09:14:05.500Z,17.4
2019-02-27T09:19:28.184Z,16.799999
2019-02-27T09:24:50.879Z,15.5
2019-02-27T09:30:13.531Z,15.4
2019-02-27T09:35:38.588Z,14.6
2019-02-27T09:40:59.873Z,14.1
2019-02-27T09:46:22.623Z,13.1
2019-02-27T09:51:45.405Z,13.5
2019-02-27T09:57:08.063Z,12.7
2019-02-27T10:02:30.681Z,12.8
2019-02-27T10:07:53.323Z,12.7
2019-02-27T10:13:15.989Z,11.4
2019-02-27T10:18:38.719Z,14.1
2019-02-27T10:24:04.310Z,14.2
2019-02-27T10:29:25.966Z,12.7
2019-02-27T10:34:50.937Z,14.5
2019-02-27T10:40:12.271Z,14.4
2019-02-27T10:45:34.986Z,14.2
2019-02-27T10:50:57.579Z,13.4
2019-02-27T10:56:21.572Z,12.9
2019-02-27T11:01:44.005Z,14.1
2019-02-27T11:07:06.843Z,13.3
2019-02-27T11:12:30.154Z,13
2019-02-27T11:17:53.487Z,12.2
2019-02-27T11:23:15.497Z,12.3
2019-02-27T11:28:38.123Z,11.5
2019-02-27T11:34:01.226Z,12.1
2019-02-27T11:39:23.687Z,12
2019-02-27T11:44:49.376Z,12.3
2019-02-27T11:50:10.131Z,11.4
2019-02-27T11:55:32.810Z,11.9
2019-02-27T12:00:55.454Z,11.9
2019-02-27T12:06:18.093Z,13.3
2019-02-27T12:11:40.725Z,12
2019-02-27T12:17:03.353Z,11.5
2019-02-27T12:22:25.914Z,11.2
2019-02-27T12:27:49.594Z,10.8
2019-02-27T12:33:12.142Z,10.3
2019-02-27T12:38:35.668Z,12
2019-02-27T12:43:58.304Z,15.5
2019-02-27T12:49:20.992Z,10.8
2019-02-27T12:54:43.609Z,11.2
2019-02-27T13:00:08.372Z,10.6
2019-02-27T13:05:30.029Z,11.4
2019-02-27T13:10:52.696Z,11.9
2019-02-27T13:16:15.276Z,11.5
2019-02-27T13:21:38.184Z,11.3
2019-02-27T13:27:01.290Z,13.7
2019-02-27T13:32:26.373Z,11.3
2019-02-27T13:37:47.632Z,10.2
2019-02-27T13:43:10.239Z,11.4
2019-02-27T13:48:33.032Z,10.7
2019-02-27T13:54:00.098Z,10.8
2019-02-27T13:59:19.933Z,9.2
2019-02-27T14:04:42.587Z,9.5
2019-02-27T14:10:05.224Z,9.6
2019-02-27T14:15:28.189Z,9.8
2019-02-27T14:20:50.546Z,9.7
2019-02-27T14:26:13.169Z,10.1
2019-02-27T14:31:35.750Z,9.9
2019-02-27T14:36:58.350Z,10.1
2019-02-27T14:42:21.334Z,9.4
2019-02-27T14:47:43.638Z,9.6
2019-02-27T14:53:06.342Z,10.2
2019-02-27T14:58:28.912Z,9.6
2019-02-27T15:03:51.589Z,10
2019-02-27T15:09:14.159Z,9.9
2019-02-27T15:14:38.450Z,9.8
2019-02-27T15:20:04.647Z,10.1
2019-02-27T15:25:24.654Z,10.6
2019-02-27T15:30:47.431Z,10.9
2019-02-27T15:36:10.032Z,10.2
2019-02-27T15:41:35.088Z,10.8
2019-02-27T15:46:56.576Z,10
2019-02-27T15:52:18.831Z,10.3
2019-02-27T15:57:42.151Z,11.1
2019-02-27T16:03:04.788Z,11.5
2019-02-27T16:08:28.295Z,11.5
2019-02-27T16:13:50.932Z,10.5
2019-02-27T16:19:17.211Z,10.9
2019-02-27T16:24:41.231Z,10.6
2019-02-27T16:30:03.664Z,10.1
2019-02-27T16:35:26.475Z,10.1
2019-02-27T16:40:52.494Z,13.1
2019-02-27T16:46:13.410Z,11.6
2019-02-27T16:51:37.727Z,11.2
2019-02-27T16:57:00.504Z,10.6
2019-02-27T17:02:24.303Z,10.7
2019-02-27T17:07:48.030Z,10.9
2019-02-27T17:13:14.330Z,10.8
2019-02-27T17:18:33.974Z,10.8
2019-02-27T17:23:56.641Z,11.4
2019-02-27T17:29:19.310Z,10.7
2019-02-27T17:34:47.206Z,11.5
2019-02-27T17:40:06.321Z,11.4
2019-02-27T17:45:30.076Z,11
2019-02-27T17:50:52.723Z,11.2
2019-02-27T17:56:16.249Z,11
2019-02-27T18:01:38.270Z,11.5
2019-02-27T18:07:00.822Z,12.3
2019-02-27T18:12:26.664Z,13.4
2019-02-27T18:17:47.606Z,15.1
2019-02-27T18:23:10.330Z,14.2
2019-02-27T18:28:33.685Z,13.9
2019-02-27T18:33:56.596Z,14.1
2019-02-27T18:39:19.325Z,13.2
2019-02-27T18:44:42.048Z,12.6
2019-02-27T18:50:04.842Z,13
2019-02-27T18:55:30.495Z,12.1
2019-02-27T19:00:51.301Z,13.1
2019-02-27T19:06:13.990Z,12.9
2019-02-27T19:11:36.733Z,12.5
2019-02-27T19:16:59.396Z,13.3
2019-02-27T19:22:22.121Z,13
2019-02-27T19:27:44.806Z,13.1
2019-02-27T19:33:08.185Z,12.9
2019-02-27T19:38:30.823Z,13.4
2019-02-27T19:43:55.711Z,12.8
2019-02-27T19:49:17.290Z,13.1
2019-02-27T19:54:42.363Z,13.5
2019-02-27T20:00:04.284Z,13.2
2019-02-27T20:05:27.961Z,13.2
2019-02-27T20:10:50.589Z,13.2
2019-02-27T20:16:13.282Z,12.9
2019-02-27T20:21:36.954Z,13.1
2019-02-27T20:26:59.597Z,12.8
2019-02-27T20:32:22.337Z,13.2
2019-02-27T20:37:44.947Z,12.7
2019-02-27T20:43:08.662Z,14
2019-02-27T20:48:32.143Z,13.5
2019-02-27T20:53:55.411Z,13.3
2019-02-27T20:59:18.065Z,13.5
2019-02-27T21:04:40.993Z,13.6
2019-02-27T21:10:03.616Z,14.4
2019-02-27T21:15:29.249Z,13.2
2019-02-27T21:20:50.878Z,13.8
2019-02-27T21:26:13.728Z,13.9
2019-02-27T21:31:36.414Z,13
2019-02-27T21:36:59.373Z,14.4
2019-02-27T21:42:22.002Z,13.8
2019-02-27T21:47:44.787Z,14
2019-02-27T21:53:07.490Z,13.4
2019-02-27T21:58:32.759Z,13.3
2019-02-27T22:03:54.155Z,14.5
2019-02-27T22:09:17.133Z,14.6
2019-02-27T22:14:40.933Z,14.8
2019-02-27T22:20:03.555Z,15.3
2019-02-27T22:25:29.758Z,15.6
2019-02-27T22:30:50.010Z,15.1
2019-02-27T22:36:13.557Z,16.200001
2019-02-27T22:41:35.531Z,17.1
2019-02-27T22:46:59.260Z,17.200001
2019-02-27T22:52:22.011Z,16.9
2019-02-27T22:57:45.562Z,17.9
2019-02-27T23:03:08.313Z,17.9
2019-02-27T23:08:30.979Z,18.4
2019-02-27T23:13:53.743Z,18.6
2019-02-27T23:19:17.457Z,20.1
2019-02-27T23:24:43.330Z,20.4
2019-02-27T23:30:04.230Z,20.4
2019-02-27T23:35:26.892Z,20.9
2019-02-27T23:40:50.116Z,21.799999
2019-02-27T23:46:12.295Z,23.1
2019-02-27T23:51:35.010Z,22.4
2019-02-27T23:56:58.453Z,21.1
